sensor_id;sensor_type;location;lat;lon;timestamp;P1;durP1;ratioP1;P2;durP2;ratioP2
55633;SDS011;41504;53.162;6.788;2023-07-30T00:00:38;10.73;;;4.22;;
55633;SDS011;41504;53.162;6.788;2023-07-30T00:03:04;13.30;;;4.90;;
55633;SDS011;41504;53.162;6.788;2023-07-30T00:05:30;10.13;;;4.57;;
55633;SDS011;41504;53.162;6.788;2023-07-30T00:07:56;12.13;;;5.10;;
55633;SDS011;41504;53.162;6.788;2023-07-30T00:10:22;12.55;;;5.13;;
55633;SDS011;41504;53.162;6.788;2023-07-30T00:12:47;13.50;;;5.25;;
55633;SDS011;41504;53.162;6.788;2023-07-30T00:15:13;9.60;;;5.68;;
55633;SDS011;41504;53.162;6.788;2023-07-30T00:17:39;8.75;;;4.80;;
55633;SDS011;41504;53.162;6.788;2023-07-30T00:20:06;10.80;;;4.70;;
55633;SDS011;41504;53.162;6.788;2023-07-30T00:22:33;11.98;;;5.22;;
55633;SDS011;41504;53.162;6.788;2023-07-30T00:24:58;10.15;;;4.97;;
55633;SDS011;41504;53.162;6.788;2023-07-30T00:27:24;11.55;;;5.00;;
55633;SDS011;41504;53.162;6.788;2023-07-30T00:29:50;11.55;;;5.10;;
55633;SDS011;41504;53.162;6.788;2023-07-30T00:32:15;11.40;;;5.47;;
55633;SDS011;41504;53.162;6.788;2023-07-30T00:34:42;10.43;;;4.75;;
55633;SDS011;41504;53.162;6.788;2023-07-30T00:37:08;12.57;;;5.32;;
55633;SDS011;41504;53.162;6.788;2023-07-30T00:39:34;9.68;;;4.80;;
55633;SDS011;41504;53.162;6.788;2023-07-30T00:42:00;12.02;;;5.07;;
55633;SDS011;41504;53.162;6.788;2023-07-30T00:44:26;10.68;;;4.93;;
55633;SDS011;41504;53.162;6.788;2023-07-30T00:46:51;9.82;;;5.35;;
55633;SDS011;41504;53.162;6.788;2023-07-30T00:49:18;10.40;;;4.80;;
55633;SDS011;41504;53.162;6.788;2023-07-30T00:51:43;8.13;;;4.30;;
55633;SDS011;41504;53.162;6.788;2023-07-30T00:54:10;9.75;;;4.95;;
55633;SDS011;41504;53.162;6.788;2023-07-30T00:56:36;10.48;;;4.82;;
55633;SDS011;41504;53.162;6.788;2023-07-30T00:59:03;9.45;;;4.13;;
55633;SDS011;41504;53.162;6.788;2023-07-30T01:01:29;11.15;;;5.28;;
55633;SDS011;41504;53.162;6.788;2023-07-30T01:03:58;9.32;;;4.85;;
55633;SDS011;41504;53.162;6.788;2023-07-30T01:06:24;10.77;;;4.57;;
55633;SDS011;41504;53.162;6.788;2023-07-30T01:08:49;9.75;;;4.38;;
55633;SDS011;41504;53.162;6.788;2023-07-30T01:11:15;11.00;;;4.88;;
55633;SDS011;41504;53.162;6.788;2023-07-30T01:13:42;10.05;;;5.13;;
55633;SDS011;41504;53.162;6.788;2023-07-30T01:16:08;10.00;;;4.88;;
55633;SDS011;41504;53.162;6.788;2023-07-30T01:18:35;10.27;;;4.60;;
55633;SDS011;41504;53.162;6.788;2023-07-30T01:21:01;11.60;;;5.07;;
55633;SDS011;41504;53.162;6.788;2023-07-30T01:23:26;13.20;;;5.20;;
55633;SDS011;41504;53.162;6.788;2023-07-30T01:25:55;9.82;;;4.32;;
55633;SDS011;41504;53.162;6.788;2023-07-30T01:28:27;13.30;;;4.70;;
55633;SDS011;41504;53.162;6.788;2023-07-30T01:30:58;10.23;;;4.93;;
55633;SDS011;41504;53.162;6.788;2023-07-30T01:33:27;13.38;;;5.28;;
55633;SDS011;41504;53.162;6.788;2023-07-30T01:35:55;10.68;;;4.57;;
55633;SDS011;41504;53.162;6.788;2023-07-30T01:38:22;10.48;;;4.72;;
55633;SDS011;41504;53.162;6.788;2023-07-30T01:40:48;12.00;;;4.55;;
55633;SDS011;41504;53.162;6.788;2023-07-30T01:43:14;9.55;;;4.22;;
55633;SDS011;41504;53.162;6.788;2023-07-30T01:45:40;10.90;;;4.57;;
55633;SDS011;41504;53.162;6.788;2023-07-30T01:48:06;13.77;;;5.65;;
55633;SDS011;41504;53.162;6.788;2023-07-30T01:50:31;9.63;;;5.25;;
55633;SDS011;41504;53.162;6.788;2023-07-30T01:52:57;13.05;;;5.68;;
55633;SDS011;41504;53.162;6.788;2023-07-30T01:55:23;13.80;;;4.80;;
55633;SDS011;41504;53.162;6.788;2023-07-30T01:57:48;13.93;;;5.07;;
55633;SDS011;41504;53.162;6.788;2023-07-30T02:00:14;16.55;;;5.22;;
55633;SDS011;41504;53.162;6.788;2023-07-30T02:02:40;11.60;;;4.60;;
55633;SDS011;41504;53.162;6.788;2023-07-30T02:05:06;12.82;;;5.22;;
55633;SDS011;41504;53.162;6.788;2023-07-30T02:07:31;14.40;;;5.13;;
55633;SDS011;41504;53.162;6.788;2023-07-30T02:09:57;12.98;;;4.78;;
55633;SDS011;41504;53.162;6.788;2023-07-30T02:12:23;13.48;;;5.25;;
55633;SDS011;41504;53.162;6.788;2023-07-30T02:14:48;14.32;;;4.95;;
55633;SDS011;41504;53.162;6.788;2023-07-30T02:17:14;12.60;;;5.07;;
55633;SDS011;41504;53.162;6.788;2023-07-30T02:19:40;16.80;;;5.38;;
55633;SDS011;41504;53.162;6.788;2023-07-30T02:22:07;14.18;;;4.97;;
55633;SDS011;41504;53.162;6.788;2023-07-30T02:24:32;14.00;;;4.75;;
55633;SDS011;41504;53.162;6.788;2023-07-30T02:26:58;13.90;;;4.70;;
55633;SDS011;41504;53.162;6.788;2023-07-30T02:29:24;12.00;;;4.70;;
55633;SDS011;41504;53.162;6.788;2023-07-30T02:31:50;21.08;;;5.70;;
55633;SDS011;41504;53.162;6.788;2023-07-30T02:34:15;13.23;;;5.03;;
55633;SDS011;41504;53.162;6.788;2023-07-30T02:36:41;16.77;;;5.50;;
55633;SDS011;41504;53.162;6.788;2023-07-30T02:39:07;13.45;;;4.95;;
55633;SDS011;41504;53.162;6.788;2023-07-30T02:41:33;15.23;;;5.63;;
55633;SDS011;41504;53.162;6.788;2023-07-30T02:43:58;17.88;;;5.43;;
55633;SDS011;41504;53.162;6.788;2023-07-30T02:46:24;13.88;;;5.38;;
55633;SDS011;41504;53.162;6.788;2023-07-30T02:48:49;15.45;;;4.90;;
55633;SDS011;41504;53.162;6.788;2023-07-30T02:51:15;16.88;;;5.18;;
55633;SDS011;41504;53.162;6.788;2023-07-30T02:53:42;13.43;;;4.82;;
55633;SDS011;41504;53.162;6.788;2023-07-30T02:56:08;15.85;;;5.07;;
55633;SDS011;41504;53.162;6.788;2023-07-30T02:58:34;12.65;;;4.50;;
55633;SDS011;41504;53.162;6.788;2023-07-30T03:01:06;17.38;;;5.63;;
55633;SDS011;41504;53.162;6.788;2023-07-30T03:03:33;16.88;;;5.15;;
55633;SDS011;41504;53.162;6.788;2023-07-30T03:05:59;13.50;;;4.80;;
55633;SDS011;41504;53.162;6.788;2023-07-30T03:08:24;12.65;;;4.47;;
55633;SDS011;41504;53.162;6.788;2023-07-30T03:10:50;15.45;;;6.10;;
55633;SDS011;41504;53.162;6.788;2023-07-30T03:13:16;15.98;;;4.85;;
55633;SDS011;41504;53.162;6.788;2023-07-30T03:15:41;15.60;;;5.78;;
55633;SDS011;41504;53.162;6.788;2023-07-30T03:18:07;12.48;;;4.32;;
55633;SDS011;41504;53.162;6.788;2023-07-30T03:20:33;13.75;;;4.68;;
55633;SDS011;41504;53.162;6.788;2023-07-30T03:22:58;15.80;;;5.68;;
55633;SDS011;41504;53.162;6.788;2023-07-30T03:25:24;16.40;;;5.07;;
55633;SDS011;41504;53.162;6.788;2023-07-30T03:27:50;13.57;;;5.30;;
55633;SDS011;41504;53.162;6.788;2023-07-30T03:30:16;14.85;;;4.85;;
55633;SDS011;41504;53.162;6.788;2023-07-30T03:32:41;14.88;;;5.38;;
55633;SDS011;41504;53.162;6.788;2023-07-30T03:35:07;13.65;;;5.00;;
55633;SDS011;41504;53.162;6.788;2023-07-30T03:37:33;12.35;;;4.68;;
55633;SDS011;41504;53.162;6.788;2023-07-30T03:39:59;15.40;;;4.65;;
55633;SDS011;41504;53.162;6.788;2023-07-30T03:42:24;13.50;;;4.45;;
55633;SDS011;41504;53.162;6.788;2023-07-30T03:44:50;13.18;;;4.72;;
55633;SDS011;41504;53.162;6.788;2023-07-30T03:47:16;14.55;;;5.38;;
55633;SDS011;41504;53.162;6.788;2023-07-30T03:49:41;15.25;;;4.60;;
55633;SDS011;41504;53.162;6.788;2023-07-30T03:52:07;14.52;;;4.97;;
55633;SDS011;41504;53.162;6.788;2023-07-30T03:54:33;13.95;;;4.40;;
55633;SDS011;41504;53.162;6.788;2023-07-30T03:56:58;13.98;;;4.68;;
55633;SDS011;41504;53.162;6.788;2023-07-30T03:59:24;12.48;;;4.35;;
55633;SDS011;41504;53.162;6.788;2023-07-30T04:01:50;17.90;;;4.55;;
55633;SDS011;41504;53.162;6.788;2023-07-30T04:04:15;11.82;;;4.25;;
55633;SDS011;41504;53.162;6.788;2023-07-30T04:06:41;13.88;;;4.43;;
55633;SDS011;41504;53.162;6.788;2023-07-30T04:09:07;14.20;;;4.22;;
55633;SDS011;41504;53.162;6.788;2023-07-30T04:11:33;15.55;;;5.22;;
55633;SDS011;41504;53.162;6.788;2023-07-30T04:13:59;13.48;;;4.72;;
55633;SDS011;41504;53.162;6.788;2023-07-30T04:16:24;12.90;;;4.30;;
55633;SDS011;41504;53.162;6.788;2023-07-30T04:18:50;14.32;;;4.40;;
55633;SDS011;41504;53.162;6.788;2023-07-30T04:21:16;15.90;;;4.68;;
55633;SDS011;41504;53.162;6.788;2023-07-30T04:23:41;10.15;;;4.43;;
55633;SDS011;41504;53.162;6.788;2023-07-30T04:26:07;12.27;;;4.25;;
55633;SDS011;41504;53.162;6.788;2023-07-30T04:28:33;17.75;;;4.68;;
55633;SDS011;41504;53.162;6.788;2023-07-30T04:30:58;16.90;;;4.90;;
55633;SDS011;41504;53.162;6.788;2023-07-30T04:33:24;15.32;;;4.35;;
55633;SDS011;41504;53.162;6.788;2023-07-30T04:35:51;13.57;;;4.40;;
55633;SDS011;41504;53.162;6.788;2023-07-30T04:38:17;16.25;;;4.75;;
55633;SDS011;41504;53.162;6.788;2023-07-30T04:40:43;11.80;;;4.63;;
55633;SDS011;41504;53.162;6.788;2023-07-30T04:43:08;11.43;;;4.10;;
55633;SDS011;41504;53.162;6.788;2023-07-30T04:45:34;12.25;;;4.45;;
55633;SDS011;41504;53.162;6.788;2023-07-30T04:48:00;15.35;;;4.50;;
55633;SDS011;41504;53.162;6.788;2023-07-30T04:50:25;15.77;;;4.50;;
55633;SDS011;41504;53.162;6.788;2023-07-30T04:52:51;14.30;;;4.35;;
55633;SDS011;41504;53.162;6.788;2023-07-30T04:55:17;14.27;;;4.28;;
55633;SDS011;41504;53.162;6.788;2023-07-30T04:57:43;12.45;;;4.10;;
55633;SDS011;41504;53.162;6.788;2023-07-30T05:00:11;13.63;;;4.10;;
55633;SDS011;41504;53.162;6.788;2023-07-30T05:02:37;14.95;;;5.03;;
55633;SDS011;41504;53.162;6.788;2023-07-30T05:05:02;15.32;;;4.13;;
55633;SDS011;41504;53.162;6.788;2023-07-30T05:07:28;10.93;;;4.10;;
55633;SDS011;41504;53.162;6.788;2023-07-30T05:09:54;12.02;;;3.92;;
55633;SDS011;41504;53.162;6.788;2023-07-30T05:12:20;15.98;;;4.28;;
55633;SDS011;41504;53.162;6.788;2023-07-30T05:14:46;12.93;;;3.72;;
55633;SDS011;41504;53.162;6.788;2023-07-30T05:17:11;14.90;;;4.43;;
55633;SDS011;41504;53.162;6.788;2023-07-30T05:19:37;12.23;;;3.58;;
55633;SDS011;41504;53.162;6.788;2023-07-30T05:22:03;12.00;;;4.07;;
55633;SDS011;41504;53.162;6.788;2023-07-30T05:24:30;15.15;;;4.20;;
55633;SDS011;41504;53.162;6.788;2023-07-30T05:26:56;12.65;;;4.13;;
55633;SDS011;41504;53.162;6.788;2023-07-30T05:29:22;12.70;;;4.00;;
55633;SDS011;41504;53.162;6.788;2023-07-30T05:31:48;12.63;;;3.80;;
55633;SDS011;41504;53.162;6.788;2023-07-30T05:34:16;13.38;;;4.18;;
55633;SDS011;41504;53.162;6.788;2023-07-30T05:36:41;14.70;;;4.55;;
55633;SDS011;41504;53.162;6.788;2023-07-30T05:39:07;14.85;;;4.10;;
55633;SDS011;41504;53.162;6.788;2023-07-30T05:41:33;13.40;;;4.45;;
55633;SDS011;41504;53.162;6.788;2023-07-30T05:43:59;14.73;;;4.60;;
55633;SDS011;41504;53.162;6.788;2023-07-30T05:46:24;13.25;;;4.50;;
55633;SDS011;41504;53.162;6.788;2023-07-30T05:48:50;15.43;;;4.45;;
55633;SDS011;41504;53.162;6.788;2023-07-30T05:51:16;11.63;;;4.25;;
55633;SDS011;41504;53.162;6.788;2023-07-30T05:53:42;12.95;;;4.07;;
55633;SDS011;41504;53.162;6.788;2023-07-30T05:56:07;14.60;;;4.20;;
55633;SDS011;41504;53.162;6.788;2023-07-30T05:58:33;14.45;;;4.28;;
55633;SDS011;41504;53.162;6.788;2023-07-30T06:00:59;14.02;;;4.55;;
55633;SDS011;41504;53.162;6.788;2023-07-30T06:03:24;16.08;;;4.80;;
55633;SDS011;41504;53.162;6.788;2023-07-30T06:05:50;17.77;;;4.30;;
55633;SDS011;41504;53.162;6.788;2023-07-30T06:08:16;14.40;;;4.53;;
55633;SDS011;41504;53.162;6.788;2023-07-30T06:10:41;16.17;;;4.60;;
55633;SDS011;41504;53.162;6.788;2023-07-30T06:13:07;11.45;;;4.10;;
55633;SDS011;41504;53.162;6.788;2023-07-30T06:15:33;14.27;;;4.45;;
55633;SDS011;41504;53.162;6.788;2023-07-30T06:18:00;13.75;;;4.20;;
55633;SDS011;41504;53.162;6.788;2023-07-30T06:20:27;11.30;;;3.78;;
55633;SDS011;41504;53.162;6.788;2023-07-30T06:22:53;16.80;;;4.22;;
55633;SDS011;41504;53.162;6.788;2023-07-30T06:25:18;12.02;;;3.92;;
55633;SDS011;41504;53.162;6.788;2023-07-30T06:27:44;13.23;;;3.88;;
55633;SDS011;41504;53.162;6.788;2023-07-30T06:30:10;10.52;;;3.40;;
55633;SDS011;41504;53.162;6.788;2023-07-30T06:32:42;12.90;;;3.80;;
55633;SDS011;41504;53.162;6.788;2023-07-30T06:35:08;15.43;;;3.60;;
55633;SDS011;41504;53.162;6.788;2023-07-30T06:37:33;15.52;;;4.18;;
55633;SDS011;41504;53.162;6.788;2023-07-30T06:39:59;13.50;;;3.63;;
55633;SDS011;41504;53.162;6.788;2023-07-30T06:42:26;14.00;;;3.58;;
55633;SDS011;41504;53.162;6.788;2023-07-30T06:44:51;16.13;;;4.43;;
55633;SDS011;41504;53.162;6.788;2023-07-30T06:47:17;11.10;;;3.42;;
55633;SDS011;41504;53.162;6.788;2023-07-30T06:49:42;13.82;;;3.90;;
55633;SDS011;41504;53.162;6.788;2023-07-30T06:52:08;13.93;;;3.70;;
55633;SDS011;41504;53.162;6.788;2023-07-30T06:54:34;13.38;;;3.70;;
55633;SDS011;41504;53.162;6.788;2023-07-30T06:57:03;13.90;;;3.75;;
55633;SDS011;41504;53.162;6.788;2023-07-30T06:59:29;11.63;;;3.65;;
55633;SDS011;41504;53.162;6.788;2023-07-30T07:01:54;14.25;;;3.63;;
55633;SDS011;41504;53.162;6.788;2023-07-30T07:04:20;13.70;;;3.65;;
55633;SDS011;41504;53.162;6.788;2023-07-30T07:06:46;13.20;;;3.45;;
55633;SDS011;41504;53.162;6.788;2023-07-30T07:09:11;11.10;;;3.38;;
55633;SDS011;41504;53.162;6.788;2023-07-30T07:11:37;16.75;;;4.00;;
55633;SDS011;41504;53.162;6.788;2023-07-30T07:14:03;17.17;;;4.57;;
55633;SDS011;41504;53.162;6.788;2023-07-30T07:16:28;13.40;;;4.00;;
55633;SDS011;41504;53.162;6.788;2023-07-30T07:18:54;13.70;;;4.07;;
55633;SDS011;41504;53.162;6.788;2023-07-30T07:21:20;15.05;;;3.80;;
55633;SDS011;41504;53.162;6.788;2023-07-30T07:23:46;14.88;;;3.80;;
55633;SDS011;41504;53.162;6.788;2023-07-30T07:26:12;11.63;;;3.72;;
55633;SDS011;41504;53.162;6.788;2023-07-30T07:28:38;12.52;;;3.60;;
55633;SDS011;41504;53.162;6.788;2023-07-30T07:31:03;14.23;;;3.92;;
55633;SDS011;41504;53.162;6.788;2023-07-30T07:33:29;10.40;;;3.40;;
55633;SDS011;41504;53.162;6.788;2023-07-30T07:36:04;13.50;;;3.75;;
55633;SDS011;41504;53.162;6.788;2023-07-30T07:38:33;11.65;;;3.60;;
55633;SDS011;41504;53.162;6.788;2023-07-30T07:41:02;12.05;;;3.40;;
55633;SDS011;41504;53.162;6.788;2023-07-30T07:43:34;14.27;;;3.70;;
55633;SDS011;41504;53.162;6.788;2023-07-30T07:46:05;11.50;;;3.38;;
55633;SDS011;41504;53.162;6.788;2023-07-30T07:48:38;13.05;;;3.67;;
55633;SDS011;41504;53.162;6.788;2023-07-30T07:51:08;10.82;;;3.65;;
55633;SDS011;41504;53.162;6.788;2023-07-30T07:53:34;14.38;;;3.83;;
55633;SDS011;41504;53.162;6.788;2023-07-30T07:56:00;15.35;;;3.45;;
55633;SDS011;41504;53.162;6.788;2023-07-30T07:58:25;15.60;;;3.53;;
55633;SDS011;41504;53.162;6.788;2023-07-30T08:00:54;13.52;;;3.58;;
55633;SDS011;41504;53.162;6.788;2023-07-30T08:03:20;12.27;;;3.50;;
55633;SDS011;41504;53.162;6.788;2023-07-30T08:05:47;11.77;;;3.22;;
55633;SDS011;41504;53.162;6.788;2023-07-30T08:08:14;13.80;;;3.70;;
55633;SDS011;41504;53.162;6.788;2023-07-30T08:10:40;13.30;;;3.70;;
55633;SDS011;41504;53.162;6.788;2023-07-30T08:13:09;11.15;;;3.47;;
55633;SDS011;41504;53.162;6.788;2023-07-30T08:15:37;13.25;;;3.03;;
55633;SDS011;41504;53.162;6.788;2023-07-30T08:18:03;11.43;;;3.20;;
55633;SDS011;41504;53.162;6.788;2023-07-30T08:20:29;11.52;;;2.70;;
55633;SDS011;41504;53.162;6.788;2023-07-30T08:22:55;9.40;;;2.72;;
55633;SDS011;41504;53.162;6.788;2023-07-30T08:25:21;9.93;;;2.60;;
55633;SDS011;41504;53.162;6.788;2023-07-30T08:27:46;7.97;;;2.40;;
55633;SDS011;41504;53.162;6.788;2023-07-30T08:30:12;7.70;;;2.40;;
55633;SDS011;41504;53.162;6.788;2023-07-30T08:32:38;9.10;;;2.30;;
55633;SDS011;41504;53.162;6.788;2023-07-30T08:35:04;7.70;;;2.10;;
55633;SDS011;41504;53.162;6.788;2023-07-30T08:37:30;7.80;;;2.10;;
55633;SDS011;41504;53.162;6.788;2023-07-30T08:39:56;5.00;;;1.67;;
55633;SDS011;41504;53.162;6.788;2023-07-30T08:42:25;6.70;;;1.80;;
55633;SDS011;41504;53.162;6.788;2023-07-30T08:44:51;7.95;;;1.88;;
55633;SDS011;41504;53.162;6.788;2023-07-30T08:47:16;6.25;;;1.92;;
55633;SDS011;41504;53.162;6.788;2023-07-30T08:49:42;7.45;;;2.05;;
55633;SDS011;41504;53.162;6.788;2023-07-30T08:52:09;5.65;;;1.73;;
55633;SDS011;41504;53.162;6.788;2023-07-30T08:54:36;8.75;;;2.20;;
55633;SDS011;41504;53.162;6.788;2023-07-30T08:57:09;8.57;;;2.28;;
55633;SDS011;41504;53.162;6.788;2023-07-30T09:00:21;8.00;;;2.05;;
55633;SDS011;41504;53.162;6.788;2023-07-30T09:02:30;8.45;;;2.25;;
55633;SDS011;41504;53.162;6.788;2023-07-30T09:05:00;5.53;;;2.00;;
55633;SDS011;41504;53.162;6.788;2023-07-30T09:07:29;7.20;;;1.92;;
55633;SDS011;41504;53.162;6.788;2023-07-30T09:09:55;7.60;;;1.92;;
55633;SDS011;41504;53.162;6.788;2023-07-30T09:12:31;4.90;;;1.80;;
55633;SDS011;41504;53.162;6.788;2023-07-30T09:14:57;8.30;;;2.42;;
55633;SDS011;41504;53.162;6.788;2023-07-30T09:17:24;7.63;;;2.20;;
55633;SDS011;41504;53.162;6.788;2023-07-30T09:19:51;7.60;;;2.10;;
55633;SDS011;41504;53.162;6.788;2023-07-30T09:22:27;11.13;;;2.38;;
55633;SDS011;41504;53.162;6.788;2023-07-30T09:24:57;9.05;;;2.03;;
55633;SDS011;41504;53.162;6.788;2023-07-30T09:27:23;8.77;;;2.30;;
55633;SDS011;41504;53.162;6.788;2023-07-30T09:29:52;10.40;;;2.28;;
55633;SDS011;41504;53.162;6.788;2023-07-30T09:32:19;11.55;;;3.15;;
55633;SDS011;41504;53.162;6.788;2023-07-30T09:34:47;8.65;;;2.38;;
55633;SDS011;41504;53.162;6.788;2023-07-30T09:37:14;7.82;;;2.55;;
55633;SDS011;41504;53.162;6.788;2023-07-30T09:39:42;8.30;;;2.45;;
55633;SDS011;41504;53.162;6.788;2023-07-30T09:42:08;7.47;;;2.28;;
55633;SDS011;41504;53.162;6.788;2023-07-30T09:44:35;8.35;;;2.50;;
55633;SDS011;41504;53.162;6.788;2023-07-30T09:47:10;11.00;;;2.63;;
55633;SDS011;41504;53.162;6.788;2023-07-30T09:49:39;9.90;;;2.85;;
55633;SDS011;41504;53.162;6.788;2023-07-30T09:52:05;7.95;;;2.47;;
55633;SDS011;41504;53.162;6.788;2023-07-30T09:54:37;10.77;;;2.80;;
55633;SDS011;41504;53.162;6.788;2023-07-30T09:57:04;7.15;;;2.40;;
55633;SDS011;41504;53.162;6.788;2023-07-30T09:59:30;7.93;;;2.63;;
55633;SDS011;41504;53.162;6.788;2023-07-30T10:01:56;8.23;;;2.47;;
55633;SDS011;41504;53.162;6.788;2023-07-30T10:04:23;7.22;;;2.13;;
55633;SDS011;41504;53.162;6.788;2023-07-30T10:09:29;5.60;;;1.60;;
55633;SDS011;41504;53.162;6.788;2023-07-30T10:11:57;6.97;;;1.75;;
55633;SDS011;41504;53.162;6.788;2023-07-30T10:14:25;6.65;;;2.03;;
55633;SDS011;41504;53.162;6.788;2023-07-30T10:16:55;6.20;;;1.75;;
55633;SDS011;41504;53.162;6.788;2023-07-30T10:19:25;5.65;;;1.80;;
55633;SDS011;41504;53.162;6.788;2023-07-30T10:24:59;8.68;;;1.80;;
55633;SDS011;41504;53.162;6.788;2023-07-30T10:27:36;8.90;;;2.03;;
55633;SDS011;41504;53.162;6.788;2023-07-30T10:32:40;5.00;;;1.50;;
55633;SDS011;41504;53.162;6.788;2023-07-30T10:35:06;7.10;;;1.88;;
55633;SDS011;41504;53.162;6.788;2023-07-30T10:37:32;6.43;;;1.90;;
55633;SDS011;41504;53.162;6.788;2023-07-30T10:39:58;4.97;;;1.80;;
55633;SDS011;41504;53.162;6.788;2023-07-30T10:42:31;6.97;;;1.90;;
55633;SDS011;41504;53.162;6.788;2023-07-30T10:44:58;5.28;;;1.67;;
55633;SDS011;41504;53.162;6.788;2023-07-30T10:47:26;7.63;;;1.90;;
55633;SDS011;41504;53.162;6.788;2023-07-30T10:49:52;4.97;;;1.55;;
55633;SDS011;41504;53.162;6.788;2023-07-30T10:52:23;6.00;;;1.88;;
55633;SDS011;41504;53.162;6.788;2023-07-30T10:54:51;6.90;;;1.77;;
55633;SDS011;41504;53.162;6.788;2023-07-30T10:57:29;7.90;;;1.92;;
55633;SDS011;41504;53.162;6.788;2023-07-30T10:59:57;6.53;;;2.15;;
55633;SDS011;41504;53.162;6.788;2023-07-30T11:02:24;5.90;;;1.90;;
55633;SDS011;41504;53.162;6.788;2023-07-30T11:04:50;5.80;;;1.90;;
55633;SDS011;41504;53.162;6.788;2023-07-30T11:07:17;6.50;;;1.83;;
55633;SDS011;41504;53.162;6.788;2023-07-30T11:09:44;7.28;;;2.22;;
55633;SDS011;41504;53.162;6.788;2023-07-30T11:12:10;5.35;;;1.90;;
55633;SDS011;41504;53.162;6.788;2023-07-30T11:14:35;5.32;;;1.98;;
55633;SDS011;41504;53.162;6.788;2023-07-30T11:17:02;5.35;;;1.80;;
55633;SDS011;41504;53.162;6.788;2023-07-30T11:19:28;6.78;;;1.73;;
55633;SDS011;41504;53.162;6.788;2023-07-30T11:21:55;7.70;;;2.40;;
55633;SDS011;41504;53.162;6.788;2023-07-30T11:24:22;6.75;;;2.22;;
55633;SDS011;41504;53.162;6.788;2023-07-30T11:27:01;9.55;;;2.50;;
55633;SDS011;41504;53.162;6.788;2023-07-30T11:29:28;7.15;;;2.00;;
55633;SDS011;41504;53.162;6.788;2023-07-30T11:31:57;7.03;;;2.17;;
55633;SDS011;41504;53.162;6.788;2023-07-30T11:34:24;7.22;;;2.05;;
55633;SDS011;41504;53.162;6.788;2023-07-30T11:36:54;6.93;;;1.80;;
55633;SDS011;41504;53.162;6.788;2023-07-30T11:39:20;7.40;;;2.00;;
55633;SDS011;41504;53.162;6.788;2023-07-30T11:41:47;9.93;;;2.35;;
55633;SDS011;41504;53.162;6.788;2023-07-30T11:44:33;8.50;;;2.17;;
55633;SDS011;41504;53.162;6.788;2023-07-30T11:47:08;7.85;;;2.38;;
55633;SDS011;41504;53.162;6.788;2023-07-30T11:49:39;9.63;;;2.60;;
55633;SDS011;41504;53.162;6.788;2023-07-30T11:52:05;9.98;;;2.47;;
55633;SDS011;41504;53.162;6.788;2023-07-30T11:54:31;6.35;;;2.17;;
55633;SDS011;41504;53.162;6.788;2023-07-30T11:56:57;12.15;;;2.78;;
55633;SDS011;41504;53.162;6.788;2023-07-30T11:59:23;7.35;;;1.95;;
55633;SDS011;41504;53.162;6.788;2023-07-30T12:01:49;7.18;;;2.13;;
55633;SDS011;41504;53.162;6.788;2023-07-30T12:04:15;6.15;;;2.00;;
55633;SDS011;41504;53.162;6.788;2023-07-30T12:06:41;5.38;;;2.00;;
55633;SDS011;41504;53.162;6.788;2023-07-30T12:09:09;5.95;;;1.90;;
55633;SDS011;41504;53.162;6.788;2023-07-30T12:11:55;7.60;;;1.95;;
55633;SDS011;41504;53.162;6.788;2023-07-30T12:14:29;12.90;;;2.35;;
55633;SDS011;41504;53.162;6.788;2023-07-30T12:17:15;6.50;;;2.00;;
55633;SDS011;41504;53.162;6.788;2023-07-30T12:19:41;10.40;;;2.00;;
55633;SDS011;41504;53.162;6.788;2023-07-30T12:22:10;6.15;;;2.00;;
55633;SDS011;41504;53.162;6.788;2023-07-30T12:24:40;7.20;;;2.10;;
55633;SDS011;41504;53.162;6.788;2023-07-30T12:27:09;7.00;;;1.83;;
55633;SDS011;41504;53.162;6.788;2023-07-30T12:29:35;7.72;;;2.03;;
55633;SDS011;41504;53.162;6.788;2023-07-30T12:32:03;4.35;;;1.40;;
55633;SDS011;41504;53.162;6.788;2023-07-30T12:34:29;7.80;;;2.40;;
55633;SDS011;41504;53.162;6.788;2023-07-30T12:36:55;5.38;;;1.73;;
55633;SDS011;41504;53.162;6.788;2023-07-30T12:39:21;5.30;;;1.60;;
55633;SDS011;41504;53.162;6.788;2023-07-30T12:41:47;7.18;;;1.95;;
55633;SDS011;41504;53.162;6.788;2023-07-30T12:44:12;6.03;;;1.92;;
55633;SDS011;41504;53.162;6.788;2023-07-30T12:46:38;6.22;;;1.77;;
55633;SDS011;41504;53.162;6.788;2023-07-30T12:49:04;7.55;;;2.20;;
55633;SDS011;41504;53.162;6.788;2023-07-30T12:51:30;6.80;;;2.20;;
55633;SDS011;41504;53.162;6.788;2023-07-30T12:53:56;4.88;;;1.40;;
55633;SDS011;41504;53.162;6.788;2023-07-30T12:56:22;6.57;;;1.60;;
55633;SDS011;41504;53.162;6.788;2023-07-30T12:58:48;7.35;;;2.15;;
55633;SDS011;41504;53.162;6.788;2023-07-30T13:01:14;7.63;;;1.88;;
55633;SDS011;41504;53.162;6.788;2023-07-30T13:03:39;8.30;;;1.83;;
55633;SDS011;41504;53.162;6.788;2023-07-30T13:06:10;8.52;;;2.03;;
55633;SDS011;41504;53.162;6.788;2023-07-30T13:08:39;6.97;;;1.80;;
55633;SDS011;41504;53.162;6.788;2023-07-30T13:11:08;5.57;;;1.63;;
55633;SDS011;41504;53.162;6.788;2023-07-30T13:13:33;7.18;;;1.75;;
55633;SDS011;41504;53.162;6.788;2023-07-30T13:15:59;6.43;;;1.60;;
55633;SDS011;41504;53.162;6.788;2023-07-30T13:18:26;7.70;;;1.65;;
55633;SDS011;41504;53.162;6.788;2023-07-30T13:20:52;7.55;;;1.83;;
55633;SDS011;41504;53.162;6.788;2023-07-30T13:23:18;7.80;;;1.73;;
55633;SDS011;41504;53.162;6.788;2023-07-30T13:25:44;5.00;;;1.50;;
55633;SDS011;41504;53.162;6.788;2023-07-30T13:28:10;6.72;;;1.75;;
55633;SDS011;41504;53.162;6.788;2023-07-30T13:30:35;5.18;;;1.50;;
55633;SDS011;41504;53.162;6.788;2023-07-30T13:33:03;5.47;;;1.60;;
55633;SDS011;41504;53.162;6.788;2023-07-30T13:35:29;7.93;;;2.40;;
55633;SDS011;41504;53.162;6.788;2023-07-30T13:37:55;5.05;;;1.70;;
55633;SDS011;41504;53.162;6.788;2023-07-30T13:40:20;8.35;;;1.95;;
55633;SDS011;41504;53.162;6.788;2023-07-30T13:42:46;6.40;;;1.70;;
55633;SDS011;41504;53.162;6.788;2023-07-30T13:45:12;7.50;;;1.88;;
55633;SDS011;41504;53.162;6.788;2023-07-30T13:47:38;7.55;;;1.98;;
55633;SDS011;41504;53.162;6.788;2023-07-30T13:50:04;6.90;;;1.70;;
55633;SDS011;41504;53.162;6.788;2023-07-30T13:52:30;8.35;;;1.88;;
55633;SDS011;41504;53.162;6.788;2023-07-30T13:54:55;9.85;;;2.33;;
55633;SDS011;41504;53.162;6.788;2023-07-30T13:57:22;6.20;;;1.77;;
55633;SDS011;41504;53.162;6.788;2023-07-30T13:59:51;7.25;;;2.03;;
55633;SDS011;41504;53.162;6.788;2023-07-30T14:02:18;5.38;;;1.80;;
55633;SDS011;41504;53.162;6.788;2023-07-30T14:04:43;6.28;;;1.70;;
55633;SDS011;41504;53.162;6.788;2023-07-30T14:07:12;8.55;;;1.80;;
55633;SDS011;41504;53.162;6.788;2023-07-30T14:09:38;10.25;;;2.25;;
55633;SDS011;41504;53.162;6.788;2023-07-30T14:12:03;7.28;;;2.15;;
55633;SDS011;41504;53.162;6.788;2023-07-30T14:14:29;7.40;;;1.85;;
55633;SDS011;41504;53.162;6.788;2023-07-30T14:16:55;8.35;;;1.90;;
55633;SDS011;41504;53.162;6.788;2023-07-30T14:19:21;8.07;;;1.77;;
55633;SDS011;41504;53.162;6.788;2023-07-30T14:21:47;6.15;;;1.67;;
55633;SDS011;41504;53.162;6.788;2023-07-30T14:24:12;6.97;;;1.65;;
55633;SDS011;41504;53.162;6.788;2023-07-30T14:26:39;6.80;;;1.65;;
55633;SDS011;41504;53.162;6.788;2023-07-30T14:29:04;5.05;;;1.60;;
55633;SDS011;41504;53.162;6.788;2023-07-30T14:31:30;10.35;;;2.10;;
55633;SDS011;41504;53.162;6.788;2023-07-30T14:33:56;7.38;;;2.28;;
55633;SDS011;41504;53.162;6.788;2023-07-30T14:36:22;7.38;;;2.10;;
55633;SDS011;41504;53.162;6.788;2023-07-30T14:38:48;6.55;;;1.83;;
55633;SDS011;41504;53.162;6.788;2023-07-30T14:41:14;5.25;;;1.60;;
55633;SDS011;41504;53.162;6.788;2023-07-30T14:43:40;6.35;;;1.90;;
55633;SDS011;41504;53.162;6.788;2023-07-30T14:46:05;5.28;;;1.73;;